Time;durP1;ratioP1;P1;durP2;ratioP2;P2;SDS_P1;SDS_P2;PMS_P1;PMS_P2;Temp;Humidity;BMP_temperature;BMP_pressure;BME280_temperature;BME280_humidity;BME280_pressure;Samples;Min_cycle;Max_cycle;Signal;HPM_P1;HPM_P2
2023/03/26 00:01:26;;;;;;;12.60;6.10;;;;;;;42.00;34.01;101037.31;5104171;28;20493;-89
2023/03/26 00:03:59;;;;;;;19.77;7.00;;;;;;;41.88;34.10;101020.91;5102868;28;20487;-89
2023/03/26 00:07:00;;;;;;;15.80;6.67;;;;;;;42.08;33.73;101041.91;5086436;28;20460;-89
2023/03/26 00:09:28;;;;;;;16.40;5.20;;;;;;;42.03;33.96;101036.66;5096302;28;20419;-89
2023/03/26 00:11:55;;;;;;;15.47;6.90;;;;;;;42.10;33.58;101036.91;5112273;28;20420;-89
2023/03/26 00:14:21;;;;;;;10.70;6.83;;;;;;;42.06;34.13;101025.09;5113155;28;20954;-89
2023/03/26 00:16:48;;;;;;;10.90;6.97;;;;;;;42.00;33.86;101010.06;5093607;28;20428;-91
2023/03/26 00:19:14;;;;;;;12.97;7.20;;;;;;;42.12;33.45;101029.22;5104771;28;20988;-89
2023/03/26 00:21:40;;;;;;;11.10;5.53;;;;;;;42.10;33.74;101031.47;5105241;28;20922;-89
2023/03/26 00:24:13;;;;;;;19.60;7.00;;;;;;;42.10;33.79;101026.81;5101367;28;20420;-89
2023/03/26 00:26:39;;;;;;;14.27;6.30;;;;;;;41.97;33.80;101016.97;5097684;28;20411;-90
2023/03/26 00:29:08;;;;;;;12.73;6.10;;;;;;;41.89;33.75;101003.41;5110749;28;20451;-89
2023/03/26 00:31:36;;;;;;;14.50;6.70;;;;;;;41.89;33.33;100996.03;5111372;28;20444;-89
2023/03/26 00:34:04;;;;;;;12.80;6.90;;;;;;;42.06;33.80;101012.28;5110762;28;20467;-89
2023/03/26 00:37:13;;;;;;;16.73;4.80;;;;;;;42.00;33.76;101013.59;5087663;28;20507;-90
2023/03/26 00:39:39;;;;;;;10.90;5.43;;;;;;;42.00;33.32;100997.25;5111152;28;20423;-89
2023/03/26 00:42:05;;;;;;;13.40;6.33;;;;;;;41.85;33.92;100971.38;5111042;28;20876;-89
2023/03/26 00:44:33;;;;;;;14.00;5.90;;;;;;;41.96;33.47;100976.44;5111428;28;20507;-89
2023/03/26 00:46:59;;;;;;;19.00;6.27;;;;;;;42.06;33.83;100995.13;5111890;28;20435;-89
2023/03/26 00:49:29;;;;;;;14.70;5.70;;;;;;;42.00;33.87;100977.38;5103943;28;20501;-90
2023/03/26 00:51:55;;;;;;;15.90;6.73;;;;;;;41.95;33.58;100969.41;5078681;28;20952;-88
2023/03/26 00:54:21;;;;;;;16.63;6.00;;;;;;;42.05;33.41;100982.59;5087895;28;21030;-90
2023/03/26 00:56:47;;;;;;;10.40;6.67;;;;;;;42.09;33.63;100989.00;5097458;28;20482;-88
2023/03/26 00:59:13;;;;;;;12.23;5.90;;;;;;;41.93;33.91;100966.19;5112216;28;20416;-90
2023/03/26 01:01:39;;;;;;;21.10;5.83;;;;;;;42.05;33.30;100977.97;5105931;28;20437;-89
2023/03/26 01:04:29;;;;;;;20.80;5.73;;;;;;;41.96;33.61;100977.22;5084414;28;20573;-89
2023/03/26 01:06:57;;;;;;;15.07;6.47;;;;;;;42.04;33.32;100981.81;5108813;28;20921;-91
2023/03/26 01:09:34;;;;;;;14.37;5.83;;;;;;;42.00;33.75;100980.91;5109417;28;20476;-89
2023/03/26 01:12:03;;;;;;;10.90;4.90;;;;;;;42.07;33.36;100978.44;5084760;28;20422;-88
2023/03/26 01:14:30;;;;;;;12.40;5.83;;;;;;;42.05;33.70;100974.44;5099315;28;20786;-90
2023/03/26 01:16:59;;;;;;;12.97;5.47;;;;;;;42.03;33.65;100982.94;5086231;28;20914;-89
2023/03/26 01:19:49;;;;;;;17.60;7.10;;;;;;;42.01;33.83;100990.66;5098732;28;20420;-88
2023/03/26 01:22:20;;;;;;;13.23;4.90;;;;;;;41.99;33.59;100975.75;5090454;28;20428;-89
2023/03/26 01:24:51;;;;;;;19.63;5.90;;;;;;;41.78;33.72;100952.03;5092089;28;20429;-89
2023/03/26 01:27:37;;;;;;;14.10;6.13;;;;;;;41.97;33.88;100980.75;5097035;28;20497;-90
2023/03/26 01:30:18;;;;;;;13.90;6.50;;;;;;;41.93;33.98;100977.91;5095309;28;20409;-90
2023/03/26 01:32:57;;;;;;;13.23;6.77;;;;;;;42.03;33.85;100976.69;5082248;28;20472;-88
2023/03/26 01:35:53;;;;;;;11.40;5.67;;;;;;;41.89;34.27;100981.63;5080343;28;20424;-89
2023/03/26 01:42:00;;;;;;;11.23;5.73;;;;;;;41.96;33.84;100969.06;5076560;28;20512;-89
2023/03/26 01:44:37;;;;;;;13.70;5.23;;;;;;;41.96;33.78;100962.81;5082519;28;20430;-89
2023/03/26 01:47:05;;;;;;;15.73;5.27;;;;;;;41.89;33.86;100938.03;5082294;28;20430;-89
2023/03/26 01:49:31;;;;;;;17.10;6.10;;;;;;;41.97;33.89;100951.56;5094208;28;20563;-90
2023/03/26 01:55:21;;;;;;;10.40;6.07;;;;;;;41.86;34.22;100934.03;5104479;28;20551;-89
2023/03/26 01:58:09;;;;;;;11.97;6.23;;;;;;;41.89;34.07;100952.44;5093567;28;20428;-89
2023/03/26 02:00:53;;;;;;;15.03;6.10;;;;;;;41.84;34.22;100944.47;5113316;28;20427;-90
2023/03/26 02:07:16;;;;;;;17.60;6.00;;;;;;;41.90;33.93;100934.97;5097757;28;20403;-89
2023/03/26 02:09:47;;;;;;;14.07;5.20;;;;;;;41.93;33.96;100937.03;5088253;28;20422;-89
2023/03/26 02:12:14;;;;;;;12.27;5.50;;;;;;;41.84;33.75;100928.91;5095305;28;20438;-89
2023/03/26 02:14:41;;;;;;;12.30;5.70;;;;;;;41.81;34.05;100920.63;5096512;27;20589;-90
2023/03/26 02:17:09;;;;;;;23.10;7.40;;;;;;;41.85;34.25;100927.78;5079358;28;20437;-90
2023/03/26 02:19:53;;;;;;;12.30;6.70;;;;;;;41.83;34.11;100924.59;5081184;27;20432;-89
2023/03/26 02:22:19;;;;;;;13.23;6.30;;;;;;;41.85;33.71;100924.25;5099553;28;20416;-90
2023/03/26 02:24:45;;;;;;;13.17;6.90;;;;;;;41.76;34.08;100905.25;5080845;28;20522;-88
2023/03/26 02:27:11;;;;;;;13.17;6.90;;;;;;;41.85;34.06;100927.78;5090005;28;20431;-89
2023/03/26 02:29:38;;;;;;;12.00;6.30;;;;;;;41.86;33.85;100923.91;5098877;28;20430;-89
2023/03/26 02:32:07;;;;;;;11.13;5.83;;;;;;;41.73;34.31;100905.88;5099006;28;20511;-89
2023/03/26 02:34:33;;;;;;;15.00;5.83;;;;;;;41.88;33.83;100918.16;5081679;28;20464;-89
2023/03/26 02:36:59;;;;;;;10.80;6.33;;;;;;;41.86;34.34;100918.47;5090355;28;20522;-89
2023/03/26 02:39:27;;;;;;;15.93;6.17;;;;;;;41.76;34.26;100899.81;5094954;28;20408;-90
2023/03/26 02:41:53;;;;;;;12.90;6.00;;;;;;;41.84;34.36;100915.28;5078951;28;20441;-89
2023/03/26 02:44:19;;;;;;;16.63;6.30;;;;;;;41.79;33.90;100890.16;5097657;28;20405;-89
2023/03/26 02:46:45;;;;;;;14.60;5.70;;;;;;;41.87;33.97;100900.22;5095962;28;20432;-91
2023/03/26 02:52:29;;;;;;;13.83;5.73;;;;;;;41.82;33.89;100889.53;5111580;27;20996;-89
2023/03/26 02:54:55;;;;;;;21.07;8.20;;;;;;;41.86;34.13;100896.66;5078005;28;20857;-89
2023/03/26 02:57:21;;;;;;;13.73;6.97;;;;;;;41.75;34.40;100897.44;5078130;28;20432;-90
2023/03/26 02:59:49;;;;;;;12.83;5.57;;;;;;;41.82;34.63;100886.78;5078028;28;20454;-88
2023/03/26 03:02:17;;;;;;;10.60;4.63;;;;;;;41.72;34.12;100873.53;5078401;28;20424;-89
2023/03/26 03:04:43;;;;;;;13.50;6.20;;;;;;;41.83;34.18;100893.84;5078114;28;20429;-88
2023/03/26 03:07:13;;;;;;;19.60;5.47;;;;;;;41.90;34.13;100896.81;5101657;27;20422;-89
2023/03/26 03:09:41;;;;;;;11.50;6.60;;;;;;;41.91;33.97;100892.16;5110560;27;20488;-89
2023/03/26 03:12:07;;;;;;;10.00;4.83;;;;;;;41.92;34.07;100894.53;5097512;28;20462;-89
2023/03/26 03:14:33;;;;;;;14.97;4.70;;;;;;;41.83;33.99;100883.72;5083913;28;20452;-88
2023/03/26 03:16:59;;;;;;;11.43;4.47;;;;;;;41.80;34.11;100889.03;5077212;28;20956;-89
2023/03/26 03:19:25;;;;;;;16.87;6.40;;;;;;;41.84;34.22;100898.94;5077796;28;20800;-89
2023/03/26 03:21:51;;;;;;;13.03;5.30;;;;;;;41.64;34.02;100877.13;5077799;28;20766;-89
2023/03/26 03:24:17;;;;;;;11.37;5.93;;;;;;;41.71;34.32;100891.00;5091325;27;20941;-89
2023/03/26 03:26:45;;;;;;;13.73;4.93;;;;;;;41.60;34.34;100877.78;5090307;28;20482;-89
2023/03/26 03:29:11;;;;;;;9.97;5.20;;;;;;;41.75;33.97;100898.22;5091802;27;20424;-89
2023/03/26 03:31:37;;;;;;;14.80;6.07;;;;;;;41.78;33.71;100892.09;5090959;28;20433;-89
2023/03/26 03:34:04;;;;;;;16.63;6.50;;;;;;;41.69;34.38;100885.91;5078480;28;20488;-89
2023/03/26 03:39:51;;;;;;;11.23;5.23;;;;;;;41.83;33.88;100882.94;5096220;28;20768;-91
2023/03/26 03:42:17;;;;;;;10.30;5.50;;;;;;;41.70;34.31;100867.63;5078637;28;20820;-88
2023/03/26 03:44:43;;;;;;;12.90;5.43;;;;;;;41.75;34.20;100875.63;5087393;28;20477;-88
2023/03/26 03:47:12;;;;;;;19.43;5.60;;;;;;;41.63;34.34;100851.81;5097862;27;20420;-89
2023/03/26 03:49:39;;;;;;;11.37;4.43;;;;;;;41.67;34.25;100843.78;5097788;28;20851;-89
2023/03/26 03:52:06;;;;;;;10.93;4.80;;;;;;;41.65;34.00;100846.03;5112136;27;20447;-89
2023/03/26 03:54:32;;;;;;;13.37;5.93;;;;;;;41.67;34.42;100852.72;5096802;28;20470;-88
2023/03/26 03:56:58;;;;;;;13.83;5.53;;;;;;;41.74;34.57;100868.53;5073746;28;20449;-89
2023/03/26 03:59:24;;;;;;;16.10;7.40;;;;;;;41.68;34.36;100857.06;5080877;28;20425;-89
2023/03/26 04:01:50;;;;;;;12.00;5.50;;;;;;;41.74;34.43;100866.66;5075716;28;20540;-88
2023/03/26 04:04:16;;;;;;;12.13;5.10;;;;;;;41.75;34.42;100872.91;5085738;28;20483;-89
2023/03/26 04:06:42;;;;;;;9.53;4.47;;;;;;;41.80;34.23;100870.75;5089437;28;20431;-89
2023/03/26 04:09:09;;;;;;;10.17;4.77;;;;;;;41.81;34.00;100877.03;5085739;28;20410;-89
2023/03/26 04:11:35;;;;;;;15.23;4.97;;;;;;;41.79;34.21;100871.91;5073756;28;20445;-89
2023/03/26 04:14:02;;;;;;;11.20;5.07;;;;;;;41.87;34.07;100862.06;5082100;28;20465;-89
2023/03/26 04:16:29;;;;;;;12.23;5.87;;;;;;;41.85;34.13;100872.50;5078806;28;20429;-91
2023/03/26 04:18:56;;;;;;;13.67;6.17;;;;;;;41.80;34.52;100870.75;5060221;28;20429;-89
2023/03/26 04:21:23;;;;;;;14.27;6.87;;;;;;;41.69;34.13;100861.38;5077803;28;20486;-89
2023/03/26 04:27:30;;;;;;;10.30;4.47;;;;;;;41.65;34.32;100865.09;5087818;22;20428;-92
2023/03/26 04:29:57;;;;;;;11.67;4.40;;;;;;;41.71;34.31;100866.50;4987570;28;20482;-90
2023/03/26 04:32:32;;;;;;;11.40;4.80;;;;;;;41.74;34.36;100872.13;4973488;28;20493;-89
2023/03/26 04:35:02;;;;;;;16.40;4.83;;;;;;;41.74;34.06;100865.81;4990593;28;20429;-90
2023/03/26 04:37:38;;;;;;;10.87;5.33;;;;;;;41.56;34.13;100859.72;4973076;28;20517;-88
2023/03/26 04:40:09;;;;;;;14.20;4.07;;;;;;;41.72;34.19;100878.97;4973978;28;20517;-90
2023/03/26 04:42:40;;;;;;;12.90;4.73;;;;;;;41.64;33.92;100869.75;4973229;28;20457;-89
2023/03/26 04:45:07;;;;;;;9.60;4.00;;;;;;;41.68;33.97;100865.25;4992722;28;20430;-90
2023/03/26 04:47:37;;;;;;;9.90;4.00;;;;;;;41.73;33.96;100873.19;4983865;28;20432;-90
2023/03/26 04:50:09;;;;;;;8.87;4.97;;;;;;;41.72;33.99;100871.59;4973905;28;20436;-89
2023/03/26 04:52:36;;;;;;;15.20;4.17;;;;;;;41.68;34.01;100867.97;4972822;28;20454;-88
2023/03/26 04:55:02;;;;;;;14.13;4.77;;;;;;;41.70;34.09;100870.34;4973743;28;20437;-90
2023/03/26 04:57:34;;;;;;;11.60;4.13;;;;;;;41.73;34.24;100875.91;4989860;28;20521;-89
2023/03/26 05:00:01;;;;;;;13.90;4.10;;;;;;;41.69;34.04;100866.03;4992220;28;20429;-89
2023/03/26 05:02:27;;;;;;;12.93;4.10;;;;;;;41.70;33.94;100873.06;4990133;28;20948;-90
2023/03/26 05:04:55;;;;;;;23.47;5.77;;;;;;;41.59;34.03;100859.84;4988926;28;20493;-90
2023/03/26 05:07:22;;;;;;;17.70;4.53;;;;;;;41.57;33.82;100864.03;4989429;28;20434;-89
2023/03/26 05:09:49;;;;;;;12.13;4.00;;;;;;;41.74;34.18;100883.00;4989211;28;20517;-90
2023/03/26 05:12:15;;;;;;;10.20;3.97;;;;;;;41.62;34.23;100874.75;4973569;28;20425;-89
2023/03/26 05:14:41;;;;;;;10.37;5.30;;;;;;;41.61;34.22;100875.84;4989361;28;20932;-91
2023/03/26 05:17:23;;;;;;;12.13;5.37;;;;;;;41.66;34.21;100885.75;4988945;28;20434;-89
2023/03/26 05:19:50;;;;;;;13.70;5.40;;;;;;;41.68;34.26;100902.56;4973144;28;20461;-89
2023/03/26 05:22:17;;;;;;;12.83;4.67;;;;;;;41.63;34.05;100894.59;4989563;28;20533;-89
2023/03/26 05:28:05;;;;;;;13.20;5.23;;;;;;;41.60;34.16;100898.78;4975626;28;20473;-88
2023/03/26 05:30:31;;;;;;;16.57;4.90;;;;;;;41.64;34.18;100909.81;4992570;28;20433;-89
2023/03/26 05:32:57;;;;;;;20.10;5.80;;;;;;;41.47;34.27;100888.94;4992351;28;20822;-89
2023/03/26 05:35:23;;;;;;;16.13;5.00;;;;;;;41.57;34.31;100904.91;4983937;28;20437;-91
2023/03/26 05:37:50;;;;;;;11.33;4.17;;;;;;;41.57;34.29;100911.13;4992132;28;20488;-90
2023/03/26 05:40:16;;;;;;;12.63;4.70;;;;;;;41.55;34.41;100909.84;4976465;28;20425;-89
2023/03/26 05:42:44;;;;;;;12.20;5.93;;;;;;;41.53;34.31;100906.66;4975586;28;20983;-91
2023/03/26 05:45:12;;;;;;;10.90;3.90;;;;;;;41.49;34.46;100919.34;4997634;28;20433;-91
2023/03/26 05:47:38;;;;;;;12.83;5.30;;;;;;;41.46;34.67;100911.84;4991463;28;20417;-90
2023/03/26 05:50:06;;;;;;;11.73;4.77;;;;;;;41.41;34.71;100914.75;4976021;28;20957;-90
2023/03/26 05:52:32;;;;;;;16.07;5.37;;;;;;;41.54;34.54;100911.78;4976054;28;20520;-89
2023/03/26 05:54:58;;;;;;;35.70;26.00;;;;;;;41.47;34.96;100910.72;4996288;28;20815;-89
2023/03/26 05:57:27;;;;;;;42.53;33.93;;;;;;;41.64;35.12;100921.50;4991631;28;20436;-89
2023/03/26 05:59:55;;;;;;;36.47;32.20;;;;;;;41.63;35.39;100930.81;4992245;28;20429;-89
2023/03/26 06:02:21;;;;;;;44.20;34.53;;;;;;;41.31;35.73;100905.00;4993461;28;20425;-89
2023/03/26 06:04:47;;;;;;;50.73;37.17;;;;;;;41.32;35.96;100920.22;4993127;28;20425;-88
2023/03/26 06:07:15;;;;;;;139.10;96.67;;;;;;;41.46;35.51;100915.38;4992241;28;20484;-89
2023/03/26 06:09:41;;;;;;;130.20;84.03;;;;;;;41.37;35.66;100922.78;4992106;28;20429;-90
2023/03/26 06:12:09;;;;;;;60.20;52.33;;;;;;;41.35;35.62;100925.03;4975828;28;20421;-91
2023/03/26 06:14:35;;;;;;;61.47;46.87;;;;;;;41.35;35.84;100925.03;4987355;28;20439;-89
2023/03/26 06:17:02;;;;;;;50.47;42.00;;;;;;;41.38;35.78;100929.84;4991454;28;20870;-91
2023/03/26 06:19:28;;;;;;;52.50;42.60;;;;;;;41.16;35.79;100908.28;4992128;28;20437;-88
2023/03/26 06:21:54;;;;;;;48.77;39.93;;;;;;;41.18;36.00;100920.44;4975966;28;20429;-89
2023/03/26 06:24:20;;;;;;;51.10;41.63;;;;;;;41.06;35.81;100901.28;5000638;28;20483;-90
2023/03/26 06:26:47;;;;;;;58.67;42.63;;;;;;;41.33;35.84;100941.69;4993617;28;20421;-89
2023/03/26 06:29:13;;;;;;;50.33;45.67;;;;;;;41.46;35.73;100958.94;4991789;28;20469;-88
2023/03/26 06:31:40;;;;;;;58.77;39.37;;;;;;;41.40;35.76;100954.78;4992307;28;20440;-89
2023/03/26 06:34:06;;;;;;;50.97;38.70;;;;;;;41.39;35.95;100961.38;4981819;28;20471;-88
2023/03/26 06:36:32;;;;;;;77.70;50.73;;;;;;;41.30;35.79;100957.84;4975494;28;20436;-89
2023/03/26 06:39:02;;;;;;;77.70;51.03;;;;;;;41.33;35.75;100959.97;4991811;28;20434;-88
2023/03/26 06:41:28;;;;;;;60.43;43.13;;;;;;;41.14;36.29;100937.75;4975235;28;20453;-89
2023/03/26 06:43:54;;;;;;;60.90;41.27;;;;;;;41.29;36.13;100965.22;4995184;28;20436;-90
2023/03/26 06:46:45;;;;;;;62.27;41.97;;;;;;;41.25;35.86;100972.47;4991851;28;20436;-90
2023/03/26 06:49:11;;;;;;;60.90;42.77;;;;;;;41.27;35.98;100972.94;4991921;28;20416;-90
2023/03/26 06:51:39;;;;;;;60.80;42.87;;;;;;;41.30;35.67;100976.91;4975235;28;20455;-89
2023/03/26 06:54:05;;;;;;;59.10;45.10;;;;;;;41.21;35.78;100966.06;4994828;28;20473;-89
2023/03/26 06:56:32;;;;;;;66.03;48.70;;;;;;;41.23;36.06;100988.31;4988663;28;20441;-89
2023/03/26 06:58:58;;;;;;;62.73;47.80;;;;;;;41.19;36.27;100978.38;4985347;28;20429;-89
2023/03/26 07:01:24;;;;;;;49.33;41.17;;;;;;;41.21;36.18;100973.44;4976456;28;20510;-93
2023/03/26 07:03:50;;;;;;;54.43;37.57;;;;;;;41.36;36.01;101002.84;4978606;28;20839;-86
2023/03/26 07:06:16;;;;;;;53.60;37.13;;;;;;;41.27;36.10;100989.25;4979412;28;20491;-85
2023/03/26 07:08:45;;;;;;;47.57;36.90;;;;;;;41.14;36.17;100973.94;4993205;28;20445;-87
2023/03/26 07:11:24;;;;;;;41.20;32.40;;;;;;;40.91;36.62;100980.72;4974813;28;20441;-88
2023/03/26 07:17:37;;;;;;;52.40;36.50;;;;;;;41.35;36.02;101023.03;5002263;28;20926;-88
2023/03/26 07:20:05;;;;;;;46.73;33.10;;;;;;;41.32;36.20;101026.41;4995509;28;20426;-86
2023/03/26 07:22:32;;;;;;;48.03;36.33;;;;;;;41.41;36.21;101029.91;4978392;28;20424;-90
2023/03/26 07:24:58;;;;;;;47.20;34.83;;;;;;;41.49;36.31;101042.66;4998715;28;20499;-85
2023/03/26 07:27:36;;;;;;;52.97;34.47;;;;;;;41.50;36.58;101040.78;4978421;28;20429;-86
2023/03/26 07:30:08;;;;;;;46.17;36.83;;;;;;;41.53;36.73;101040.91;4994441;28;20472;-85
2023/03/26 07:32:44;;;;;;;52.87;38.00;;;;;;;41.57;36.33;101054.66;4966104;28;20544;-85
2023/03/26 07:35:29;;;;;;;45.70;37.60;;;;;;;41.65;36.03;101063.94;4995341;28;20487;-84
2023/03/26 07:38:38;;;;;;;43.80;35.83;;;;;;;41.74;35.72;101070.13;4994750;28;20975;-86
2023/03/26 07:41:35;;;;;;;38.07;33.70;;;;;;;41.79;35.81;101073.47;4969332;28;20499;-88
2023/03/26 07:44:30;;;;;;;49.47;29.87;;;;;;;41.69;35.71;101071.13;4970413;28;20433;-87
2023/03/26 07:46:59;;;;;;;30.10;26.13;;;;;;;41.53;36.16;101070.84;4977720;28;20487;-89
2023/03/26 07:49:28;;;;;;;40.53;27.63;;;;;;;41.59;35.80;101077.72;4981588;28;20434;-88
2023/03/26 07:51:54;;;;;;;38.47;26.97;;;;;;;41.67;35.46;101094.34;4971922;28;20904;-87
2023/03/26 07:54:20;;;;;;;29.53;18.63;;;;;;;41.71;35.10;101090.66;4979959;28;20544;-85
2023/03/26 07:57:15;;;;;;;14.80;9.83;;;;;;;41.71;34.76;101096.09;4977021;28;20437;-87
2023/03/26 07:59:56;;;;;;;11.37;6.60;;;;;;;41.72;33.91;101091.44;4993385;28;20520;-88
2023/03/26 08:02:50;;;;;;;17.60;3.87;;;;;;;41.76;33.94;101109.56;4968248;28;21013;-88
2023/03/26 08:05:24;;;;;;;8.77;4.30;;;;;;;41.82;34.38;101112.91;4960962;28;20484;-90
2023/03/26 08:08:08;;;;;;;12.67;5.20;;;;;;;41.82;34.23;101123.81;4976865;28;20931;-88
2023/03/26 08:10:41;;;;;;;9.10;3.90;;;;;;;41.82;33.85;101127.34;4994335;28;20520;-88
2023/03/26 08:13:22;;;;;;;11.70;4.23;;;;;;;41.86;34.02;101133.72;4976323;28;20480;-87
2023/03/26 08:16:11;;;;;;;12.13;4.27;;;;;;;41.89;33.82;101132.28;4973108;28;20461;-89
2023/03/26 08:18:49;;;;;;;10.67;4.20;;;;;;;41.93;33.95;101130.50;4991812;28;20428;-88
2023/03/26 08:21:24;;;;;;;9.17;3.43;;;;;;;41.94;33.77;101136.75;4977739;28;20943;-88
2023/03/26 08:24:10;;;;;;;12.90;4.20;;;;;;;42.01;33.60;101143.28;4999618;28;20443;-88
2023/03/26 08:27:05;;;;;;;12.70;3.90;;;;;;;42.02;33.76;101144.06;5023246;22;20573;-88
2023/03/26 08:29:57;;;;;;;7.40;3.20;;;;;;;42.03;33.54;101137.47;5053906;28;20928;-88
2023/03/26 08:32:23;;;;;;;8.90;3.97;;;;;;;42.10;33.87;101135.03;5045025;28;20433;-88
2023/03/26 08:34:49;;;;;;;8.80;4.07;;;;;;;42.06;33.73;101139.56;5058778;28;20944;-90
2023/03/26 08:37:15;;;;;;;13.17;5.70;;;;;;;42.11;33.57;101139.34;5056115;28;20450;-87
2023/03/26 08:39:42;;;;;;;12.40;3.40;;;;;;;42.08;33.50;101134.56;5058173;28;20429;-79
2023/03/26 08:42:45;;;;;;;10.07;3.43;;;;;;;42.12;33.52;101154.59;5045934;28;20838;-88
2023/03/26 08:45:32;;;;;;;9.23;3.70;;;;;;;42.11;33.85;101136.63;5032627;28;20944;-89
2023/03/26 08:48:54;;;;;;;7.73;4.00;;;;;;;42.19;33.42;101148.66;5038368;28;20434;-92
2023/03/26 08:51:53;;;;;;;7.67;3.37;;;;;;;42.21;33.17;101149.13;4967755;28;20806;-86
2023/03/26 08:58:19;;;;;;;9.20;4.00;;;;;;;42.04;33.36;101130.91;5052927;28;20413;-89
2023/03/26 09:01:11;;;;;;;9.53;4.50;;;;;;;42.07;33.42;101135.72;5045625;28;20430;-91
2023/03/26 09:04:14;;;;;;;8.70;4.00;;;;;;;42.27;33.29;101162.25;5036344;28;20423;-91
2023/03/26 09:07:15;;;;;;;13.57;5.07;;;;;;;42.34;33.71;101159.78;5052649;28;20434;-90
2023/03/26 09:10:24;;;;;;;11.73;4.00;;;;;;;42.27;33.49;101156.00;5022002;28;20493;-90
2023/03/26 09:13:51;;;;;;;13.37;4.20;;;;;;;42.08;33.54;101124.47;5055280;28;20479;-91
2023/03/26 09:16:57;;;;;;;11.67;3.60;;;;;;;42.32;33.65;101167.50;4941801;28;20440;-92
2023/03/26 09:20:10;;;;;;;9.90;3.40;;;;;;;42.34;33.84;101165.25;4984394;28;20417;-89
2023/03/26 09:23:15;;;;;;;13.73;4.13;;;;;;;42.36;33.56;101162.22;4943450;28;21785;-91
2023/03/26 09:26:03;;;;;;;15.87;4.13;;;;;;;42.44;33.57;101164.06;4892004;29;20429;-90
2023/03/26 09:32:01;;;;;;;12.30;3.70;;;;;;;42.36;33.52;101146.63;4872297;29;20433;-86
2023/03/26 09:34:50;;;;;;;15.83;7.40;;;;;;;42.25;33.48;101131.00;4860897;29;20481;-84
2023/03/26 09:37:53;;;;;;;8.60;3.60;;;;;;;42.50;33.27;101162.75;4889497;29;20425;-86
2023/03/26 09:40:44;;;;;;;10.53;3.60;;;;;;;42.47;33.41;101149.75;4934238;29;20541;-88
2023/03/26 09:43:39;;;;;;;14.30;4.07;;;;;;;42.52;33.56;101156.94;4904685;29;20543;-89
2023/03/26 09:46:23;;;;;;;9.90;3.60;;;;;;;42.59;33.35;101168.16;4934206;29;20436;-83
2023/03/26 09:48:56;;;;;;;15.03;3.40;;;;;;;42.60;33.26;101167.03;4933985;29;20520;-84
2023/03/26 09:52:00;;;;;;;7.60;2.87;;;;;;;42.57;33.52;101159.50;4996140;28;20418;-84
2023/03/26 09:54:30;;;;;;;12.63;3.77;;;;;;;42.63;33.33;101163.66;5004303;28;20634;-83
2023/03/26 09:57:13;;;;;;;11.80;4.00;;;;;;;42.62;33.58;101162.06;5010910;28;20428;-84
2023/03/26 09:59:51;;;;;;;9.80;3.80;;;;;;;42.64;33.33;101149.66;5011160;28;20930;-85
2023/03/26 10:02:42;;;;;;;13.90;4.37;;;;;;;42.63;33.23;101160.91;5011607;28;20514;-92
2023/03/26 10:05:30;;;;;;;9.13;3.90;;;;;;;42.61;33.18;101160.47;5022906;28;20500;-84
2023/03/26 10:08:35;;;;;;;12.60;3.43;;;;;;;42.55;33.29;101151.66;5011345;28;20416;-84
2023/03/26 10:11:32;;;;;;;12.03;3.67;;;;;;;42.65;33.34;101166.84;5008372;28;20429;-84
2023/03/26 10:14:48;;;;;;;13.57;4.63;;;;;;;42.61;33.63;101155.00;4995152;28;20492;-84
2023/03/26 10:17:34;;;;;;;9.50;3.90;;;;;;;42.71;33.61;101159.25;4991683;28;20805;-85
2023/03/26 10:20:37;;;;;;;13.53;4.83;;;;;;;42.69;33.39;101156.88;5011284;28;20498;-88
2023/03/26 10:23:45;;;;;;;11.93;4.00;;;;;;;42.70;33.61;101157.66;5010886;28;20434;-84
2023/03/26 10:26:20;;;;;;;18.17;3.37;;;;;;;42.67;33.56;101164.59;5005365;28;20449;-85
2023/03/26 10:29:17;;;;;;;13.23;4.10;;;;;;;42.61;33.48;101152.28;5040667;28;20465;-84
2023/03/26 10:31:46;;;;;;;13.60;4.60;;;;;;;42.54;33.37;101136.41;5020959;28;20435;-85
2023/03/26 10:34:50;;;;;;;14.47;4.77;;;;;;;42.68;33.56;101155.28;5039077;28;20459;-84
2023/03/26 10:37:39;;;;;;;8.53;2.93;;;;;;;42.69;33.60;101150.63;5044096;28;20418;-83
2023/03/26 10:40:29;;;;;;;12.33;4.23;;;;;;;42.72;33.47;101147.19;5030559;28;20458;-84
2023/03/26 10:43:13;;;;;;;11.77;3.97;;;;;;;42.71;33.50;101140.16;5023987;28;20970;-85
2023/03/26 10:45:58;;;;;;;11.13;4.67;;;;;;;42.68;33.60;101149.03;5044791;28;20426;-84
2023/03/26 10:48:44;;;;;;;8.23;3.70;;;;;;;42.72;33.31;101144.47;5042502;28;20545;-84
2023/03/26 10:51:16;;;;;;;10.80;4.23;;;;;;;42.67;33.64;101142.78;5021539;28;20959;-84
2023/03/26 10:53:47;;;;;;;8.60;4.33;;;;;;;42.71;33.52;101134.69;5047896;28;20545;-81
2023/03/26 10:56:34;;;;;;;15.33;4.40;;;;;;;42.70;33.48;101131.19;5036082;28;20450;-83
2023/03/26 10:59:13;;;;;;;9.37;3.47;;;;;;;42.66;33.46;101111.13;5038546;28;20501;-84
2023/03/26 11:01:50;;;;;;;9.70;3.33;;;;;;;42.63;33.49;101117.28;5026836;28;20437;-84
2023/03/26 11:04:39;;;;;;;10.40;5.03;;;;;;;42.68;33.51;101125.25;5031902;28;20976;-83
2023/03/26 11:07:27;;;;;;;10.23;3.17;;;;;;;42.69;33.48;101115.94;5024068;28;20426;-84
2023/03/26 11:10:05;;;;;;;7.40;3.17;;;;;;;42.68;33.49;101122.53;5037611;28;20492;-84
2023/03/26 11:13:06;;;;;;;14.20;3.60;;;;;;;42.70;33.59;101114.81;5036873;28;20434;-82
2023/03/26 11:15:47;;;;;;;9.50;3.73;;;;;;;42.75;33.41;101108.34;4995748;28;20449;-84
2023/03/26 11:18:37;;;;;;;9.70;3.70;;;;;;;42.76;33.53;101099.03;5054819;28;20410;-81
2023/03/26 11:21:21;;;;;;;11.70;4.70;;;;;;;42.76;33.35;101096.31;5035322;28;20522;-85
2023/03/26 11:24:33;;;;;;;7.97;3.63;;;;;;;42.80;33.16;101092.59;5033902;28;20446;-82
2023/03/26 11:27:53;;;;;;;9.50;3.50;;;;;;;42.84;33.37;101088.03;5037069;28;21011;-82
2023/03/26 11:30:37;;;;;;;12.13;4.10;;;;;;;42.87;33.47;101092.84;4959730;28;20422;-82
2023/03/26 11:33:07;;;;;;;9.57;3.87;;;;;;;42.67;33.75;101087.41;5014845;28;20473;-82
2023/03/26 11:35:48;;;;;;;9.10;2.97;;;;;;;42.77;33.45;101081.53;5034683;28;20426;-82
2023/03/26 11:38:32;;;;;;;15.40;3.67;;;;;;;42.82;33.52;101075.88;5024305;28;20444;-82
2023/03/26 11:41:00;;;;;;;8.40;3.17;;;;;;;42.80;33.33;101075.41;5020326;28;20469;-82
2023/03/26 11:43:35;;;;;;;16.60;4.83;;;;;;;42.86;33.71;101071.34;5017208;28;20514;-82
2023/03/26 11:46:07;;;;;;;8.37;3.50;;;;;;;42.84;33.28;101047.09;5016427;28;20893;-82
2023/03/26 11:48:59;;;;;;;8.10;3.23;;;;;;;42.97;33.18;101053.41;5037969;28;20572;-82
2023/03/26 11:51:42;;;;;;;8.97;3.47;;;;;;;42.96;33.02;101057.25;5020018;28;20430;-82
2023/03/26 11:54:11;;;;;;;10.33;4.30;;;;;;;42.98;33.10;101048.75;5020628;28;20837;-84
2023/03/26 11:57:00;;;;;;;10.83;3.37;;;;;;;42.96;33.24;101045.53;5035185;28;20435;-83
2023/03/26 11:59:44;;;;;;;10.40;4.27;;;;;;;43.01;33.40;101039.91;5035008;28;20511;-84
2023/03/26 12:02:10;;;;;;;12.60;4.70;;;;;;;43.09;32.94;101045.25;5033350;28;20416;-83
2023/03/26 12:04:39;;;;;;;10.90;4.40;;;;;;;43.07;32.52;101033.88;5036337;28;20419;-84
2023/03/26 12:07:30;;;;;;;10.43;4.47;;;;;;;43.10;32.82;101044.16;5053890;28;20422;-83
2023/03/26 12:10:02;;;;;;;10.80;3.27;;;;;;;43.10;32.81;101027.78;5031072;28;20435;-82
2023/03/26 12:12:32;;;;;;;10.83;4.27;;;;;;;43.05;32.98;101029.91;5035775;28;20434;-81
2023/03/26 12:14:59;;;;;;;7.30;3.80;;;;;;;43.11;33.13;101026.63;5031542;28;20445;-81
2023/03/26 12:17:32;;;;;;;7.10;3.23;;;;;;;43.12;32.86;101032.88;5035520;28;20809;-85
2023/03/26 12:20:24;;;;;;;8.90;3.33;;;;;;;43.13;32.67;101029.00;5032658;28;20556;-81
2023/03/26 12:22:57;;;;;;;9.37;3.50;;;;;;;43.14;32.52;101027.88;5035106;28;20430;-82
2023/03/26 12:25:32;;;;;;;8.50;3.43;;;;;;;42.93;33.19;101030.66;5035538;28;20986;-81
2023/03/26 12:28:03;;;;;;;7.83;3.90;;;;;;;43.07;32.96;101030.38;5032594;28;20474;-83
2023/03/26 12:30:36;;;;;;;9.17;3.60;;;;;;;43.08;32.69;101037.41;5017270;28;20427;-83